Check out our new BloomSky Weather System.

Active alerts

Houston, TX
  Details for Houston, TX Dense Fog Advisory


Thunder radar  blitzortung!


Rain radar more information rain snow radar


Visit our other weather sites:

Template documentation
and downloads

And another site



Weather Underground History page Text

Daily Summary for February 25, 2017 Units:  English    Metric   Both
« Previous Day
Next Day »
Daily Weekly Monthly Yearly Custom
  High: Low: Average:
Temperature: 69.1 °F 47.5 °F 57 °F
Dew Point: 40.6 °F 31.5 °F 35.4 °F
Humidity: 65 % 27 % 46 %
Wind Speed: 11.0 mph 0.0 mph 2.3 mph
Wind Gust: 14.0 mph - -
Wind:- - SW
Pressure: 30.17 in 29.96 in -
Precipitation: 0.00 in    
Historical Graphs
 
 
Tabular Data for February 25, 2017
Time Temperature Dew Point Pressure Wind Wind Speed Wind Gust Humidity Rainfall Rate (Hourly)
00:02 57.7 °F 40.6 °F 29.96 in Calm   12.0 mph 53 % 0.00 in
00:08 57.6 °F 40.6 °F 29.96 in North 3.0 mph 10.0 mph 53 % 0.00 in
00:13 57.4 °F 40.5 °F 29.97 in North 3.0 mph 12.0 mph 53 % 0.00 in
00:18 57.2 °F 40.3 °F 29.97 in NW 4.0 mph 12.0 mph 53 % 0.00 in
00:23 57.0 °F 40.5 °F 29.97 in North 4.0 mph 12.0 mph 54 % 0.00 in
00:28 57.0 °F 40.5 °F 29.97 in NW 4.0 mph 9.0 mph 54 % 0.00 in
00:33 56.7 °F 40.3 °F 29.97 in North 2.0 mph 9.0 mph 54 % 0.00 in
00:38 56.5 °F 40.5 °F 29.97 in NNW 2.0 mph 7.0 mph 55 % 0.00 in
00:43 56.3 °F 40.3 °F 29.97 in NNW 3.0 mph 7.0 mph 55 % 0.00 in
00:48 55.9 °F 40.5 °F 29.97 in NW 2.0 mph 7.0 mph 56 % 0.00 in
00:53 55.8 °F 40.3 °F 29.97 in NW 1.0 mph 7.0 mph 56 % 0.00 in
00:58 55.6 °F 40.1 °F 29.97 in NNW 2.0 mph 7.0 mph 56 % 0.00 in
00:59 55.6 °F 40.6 °F 29.97 in WNW 2.0 mph 7.0 mph 57 % 0.00 in
01:04 55.2 °F 39.7 °F 29.97 in NNW 3.0 mph 5.0 mph 56 % 0.00 in
01:09 55.2 °F 40.3 °F 29.97 in NNW 2.0 mph 5.0 mph 57 % 0.00 in
01:14 55.0 °F 40.1 °F 29.98 in NW 1.0 mph 7.0 mph 57 % 0.00 in
01:19 54.7 °F 39.7 °F 29.98 in Calm   7.0 mph 57 % 0.00 in
01:24 54.5 °F 40.1 °F 29.98 in Calm   7.0 mph 58 % 0.00 in
01:29 54.3 °F 39.9 °F 29.98 in Calm   5.0 mph 58 % 0.00 in
01:34 54.0 °F 39.6 °F 29.99 in Calm   4.0 mph 58 % 0.00 in
01:39 53.8 °F 39.7 °F 29.99 in Calm   4.0 mph 59 % 0.00 in
01:45 53.2 °F 39.2 °F 29.99 in Calm   2.0 mph 59 % 0.00 in
01:50 53.2 °F 39.2 °F 29.99 in NW 1.0 mph 1.0 mph 59 % 0.00 in
01:55 53.4 °F 39.4 °F 30.00 in Calm   3.0 mph 59 % 0.00 in
02:00 53.4 °F 39.4 °F 30.00 in NNW 1.0 mph 3.0 mph 59 % 0.00 in
02:05 53.4 °F 39.0 °F 30.00 in Calm   7.0 mph 58 % 0.00 in
02:10 53.2 °F 39.2 °F 30.00 in Calm   7.0 mph 59 % 0.00 in
02:15 53.1 °F 39.2 °F 30.00 in NNW 1.0 mph 3.0 mph 59 % 0.00 in
02:20 52.9 °F 39.0 °F 30.00 in Calm   2.0 mph 59 % 0.00 in
02:25 52.5 °F 39.0 °F 30.00 in Calm   2.0 mph 60 % 0.00 in
02:30 52.2 °F 38.7 °F 30.00 in Calm   2.0 mph 60 % 0.00 in
02:35 52.0 °F 39.0 °F 30.00 in NNE 1.0 mph 2.0 mph 61 % 0.00 in
02:40 52.2 °F 39.2 °F 30.00 in Calm   3.0 mph 61 % 0.00 in
02:45 52.2 °F 38.7 °F 30.01 in NW 3.0 mph 4.0 mph 60 % 0.00 in
02:50 52.2 °F 38.7 °F 30.01 in Calm   4.0 mph 60 % 0.00 in
02:55 52.0 °F 38.5 °F 30.01 in NNW 1.0 mph 4.0 mph 60 % 0.00 in
03:00 52.0 °F 38.5 °F 30.01 in North 1.0 mph 4.0 mph 60 % 0.00 in
03:05 51.8 °F 38.3 °F 30.01 in Calm   4.0 mph 60 % 0.00 in
03:10 51.4 °F 38.5 °F 30.01 in Calm   4.0 mph 61 % 0.00 in
03:15 51.3 °F 38.3 °F 30.01 in North 1.0 mph 2.0 mph 61 % 0.00 in
03:20 51.1 °F 38.5 °F 30.01 in Calm   2.0 mph 62 % 0.00 in
03:25 50.7 °F 38.1 °F 30.01 in North 1.0 mph 2.0 mph 62 % 0.00 in
03:30 50.7 °F 38.1 °F 30.01 in NW 1.0 mph 3.0 mph 62 % 0.00 in
03:35 50.7 °F 38.1 °F 30.01 in Calm   4.0 mph 62 % 0.00 in
03:40 50.7 °F 38.1 °F 30.01 in NNW 1.0 mph 4.0 mph 62 % 0.00 in
03:45 50.9 °F 38.3 °F 30.02 in Calm   5.0 mph 62 % 0.00 in
03:51 50.7 °F 38.1 °F 30.02 in Calm   5.0 mph 62 % 0.00 in
03:56 50.5 °F 37.9 °F 30.02 in Calm   5.0 mph 62 % 0.00 in
04:01 50.4 °F 37.8 °F 30.03 in Calm   2.0 mph 62 % 0.00 in
04:06 50.4 °F 38.3 °F 30.02 in Calm   2.0 mph 63 % 0.00 in
04:11 50.0 °F 37.9 °F 30.02 in NNW 2.0 mph 2.0 mph 63 % 0.00 in
04:16 49.8 °F 38.1 °F 30.03 in WNW 1.0 mph 2.0 mph 64 % 0.00 in
04:21 49.6 °F 37.9 °F 30.03 in NNE 2.0 mph 3.0 mph 64 % 0.00 in
04:26 49.6 °F 37.9 °F 30.03 in NNW 3.0 mph 3.0 mph 64 % 0.00 in
04:31 49.6 °F 37.9 °F 30.04 in NW 2.0 mph 3.0 mph 64 % 0.00 in
04:36 49.8 °F 37.8 °F 30.04 in North 3.0 mph 4.0 mph 63 % 0.00 in
04:41 50.0 °F 37.6 °F 30.04 in NW 2.0 mph 6.0 mph 62 % 0.00 in
04:46 50.0 °F 37.6 °F 30.05 in NNW 2.0 mph 6.0 mph 62 % 0.00 in
04:51 49.8 °F 37.4 °F 30.06 in NNW 1.0 mph 6.0 mph 62 % 0.00 in
04:56 49.8 °F 37.8 °F 30.05 in NNW 1.0 mph 5.0 mph 63 % 0.00 in
05:01 49.6 °F 37.9 °F 30.06 in NW 2.0 mph 4.0 mph 64 % 0.00 in
05:06 49.5 °F 37.8 °F 30.06 in WNW 3.0 mph 5.0 mph 64 % 0.00 in
05:11 49.5 °F 37.8 °F 30.06 in NW 5.0 mph 6.0 mph 64 % 0.00 in
05:16 49.5 °F 37.4 °F 30.06 in North 4.0 mph 10.0 mph 63 % 0.00 in
05:21 49.5 °F 37.4 °F 30.06 in NNW 2.0 mph 10.0 mph 63 % 0.00 in
05:26 49.3 °F 37.2 °F 30.06 in NNW 1.0 mph 10.0 mph 63 % 0.00 in
05:31 49.1 °F 37.0 °F 30.07 in NNW 2.0 mph 7.0 mph 63 % 0.00 in
05:36 49.1 °F 37.0 °F 30.07 in NNW 6.0 mph 8.0 mph 63 % 0.00 in
05:41 48.9 °F 36.9 °F 30.07 in NNW 1.0 mph 8.0 mph 63 % 0.00 in
05:46 48.9 °F 36.9 °F 30.08 in North 2.0 mph 8.0 mph 63 % 0.00 in
05:51 48.7 °F 36.7 °F 30.07 in NNW 3.0 mph 8.0 mph 63 % 0.00 in
05:57 48.6 °F 36.9 °F 30.08 in NW 2.0 mph 7.0 mph 64 % 0.00 in
06:02 48.6 °F 36.9 °F 30.08 in NW 5.0 mph 6.0 mph 64 % 0.00 in
06:07 48.4 °F 37.2 °F 30.08 in WNW 1.0 mph 6.0 mph 65 % 0.00 in
06:12 48.0 °F 36.9 °F 30.08 in West 4.0 mph 6.0 mph 65 % 0.00 in
06:17 48.0 °F 36.9 °F 30.08 in NNE 5.0 mph 6.0 mph 65 % 0.00 in
06:22 47.8 °F 36.7 °F 30.08 in NNW 5.0 mph 7.0 mph 65 % 0.00 in
06:27 47.8 °F 36.3 °F 30.09 in North 4.0 mph 7.0 mph 64 % 0.00 in
06:32 47.8 °F 35.4 °F 30.09 in NNE 2.0 mph 7.0 mph 62 % 0.00 in
06:37 47.8 °F 35.4 °F 30.09 in Calm   7.0 mph 62 % 0.00 in
06:42 47.7 °F 35.6 °F 30.09 in NNW 3.0 mph 7.0 mph 63 % 0.00 in
06:47 47.7 °F 35.6 °F 30.10 in NNW 3.0 mph 6.0 mph 63 % 0.00 in
06:52 47.5 °F 36.0 °F 30.10 in NW 2.0 mph 6.0 mph 64 % 0.00 in
06:57 47.5 °F 35.6 °F 30.10 in WNW 2.0 mph 7.0 mph 63 % 0.00 in
07:02 47.5 °F 35.1 °F 30.11 in WNW 6.0 mph 8.0 mph 62 % 0.00 in
07:07 47.5 °F 34.7 °F 30.11 in NW 3.0 mph 12.0 mph 61 % 0.00 in
07:12 47.5 °F 35.1 °F 30.11 in West 4.0 mph 12.0 mph 62 % 0.00 in
07:17 47.5 °F 35.1 °F 30.12 in North 2.0 mph 12.0 mph 62 % 0.00 in
07:22 47.5 °F 34.7 °F 30.12 in NW 9.0 mph 9.0 mph 61 % 0.00 in
07:27 47.5 °F 34.3 °F 30.12 in NNE 5.0 mph 11.0 mph 60 % 0.00 in
07:32 47.7 °F 34.5 °F 30.13 in NW 3.0 mph 12.0 mph 60 % 0.00 in
07:37 47.8 °F 33.8 °F 30.12 in North 7.0 mph 12.0 mph 58 % 0.00 in
07:42 48.0 °F 34.0 °F 30.13 in NW 5.0 mph 12.0 mph 58 % 0.00 in
07:47 48.2 °F 34.2 °F 30.13 in NNW 7.0 mph 11.0 mph 58 % 0.00 in
07:52 48.6 °F 34.5 °F 30.14 in NNE 9.0 mph 11.0 mph 58 % 0.00 in
07:57 48.7 °F 34.2 °F 30.14 in NW 6.0 mph 11.0 mph 57 % 0.00 in
08:02 48.9 °F 34.3 °F 30.14 in NE 5.0 mph 13.0 mph 57 % 0.00 in
08:07 49.1 °F 34.2 °F 30.14 in NNW 7.0 mph 13.0 mph 56 % 0.00 in
08:12 49.3 °F 33.8 °F 30.14 in NNE 4.0 mph 13.0 mph 55 % 0.00 in
08:17 49.6 °F 33.6 °F 30.14 in WNW 3.0 mph 12.0 mph 54 % 0.00 in
08:23 49.8 °F 33.8 °F 30.14 in WNW 6.0 mph 12.0 mph 54 % 0.00 in
08:28 50.2 °F 33.6 °F 30.15 in North 5.0 mph 12.0 mph 53 % 0.00 in
08:33 50.4 °F 33.4 °F 30.15 in North 7.0 mph 12.0 mph 52 % 0.00 in
08:38 50.5 °F 33.1 °F 30.15 in NE 7.0 mph 11.0 mph 51 % 0.00 in
08:43 50.5 °F 33.6 °F 30.15 in NNW 2.0 mph 13.0 mph 52 % 0.00 in
08:48 51.1 °F 33.6 °F 30.15 in WNW 2.0 mph 13.0 mph 51 % 0.00 in
08:53 51.3 °F 32.7 °F 30.15 in NNW 2.0 mph 13.0 mph 49 % 0.00 in
08:58 51.6 °F 33.1 °F 30.16 in North 6.0 mph 12.0 mph 49 % 0.00 in
09:03 51.6 °F 32.5 °F 30.16 in WNW 11.0 mph 11.0 mph 48 % 0.00 in
09:08 51.6 °F 32.5 °F 30.16 in West 6.0 mph 14.0 mph 48 % 0.00 in
09:13 52.0 °F 32.9 °F 30.16 in NW 5.0 mph 14.0 mph 48 % 0.00 in
09:18 52.2 °F 32.5 °F 30.16 in NW 8.0 mph 14.0 mph 47 % 0.00 in
09:23 52.5 °F 32.4 °F 30.17 in NNW 9.0 mph 13.0 mph 46 % 0.00 in
09:28 52.9 °F 32.7 °F 30.17 in NW 5.0 mph 13.0 mph 46 % 0.00 in
09:33 53.2 °F 32.4 °F 30.17 in NNW 4.0 mph 11.0 mph 45 % 0.00 in
09:38 53.8 °F 34.0 °F 30.17 in NNE 3.0 mph 13.0 mph 47 % 0.00 in
09:43 54.1 °F 33.3 °F 30.17 in WNW 4.0 mph 13.0 mph 45 % 0.00 in
09:48 54.7 °F 33.3 °F 30.16 in NW 5.0 mph 13.0 mph 44 % 0.00 in
09:53 55.0 °F 34.2 °F 30.16 in North 4.0 mph 10.0 mph 45 % 0.00 in
09:58 54.9 °F 32.2 °F 30.16 in WNW 5.0 mph 12.0 mph 42 % 0.00 in
10:03 54.9 °F 32.7 °F 30.17 in NNW 3.0 mph 12.0 mph 43 % 0.00 in
10:08 55.2 °F 33.1 °F 30.17 in North 3.0 mph 13.0 mph 43 % 0.00 in
10:14 55.9 °F 33.3 °F 30.17 in NW 4.0 mph 13.0 mph 42 % 0.00 in
10:19 56.3 °F 32.9 °F 30.17 in NW 7.0 mph 13.0 mph 41 % 0.00 in
10:24 56.7 °F 33.3 °F 30.17 in NW 3.0 mph 9.0 mph 41 % 0.00 in
10:29 56.7 °F 32.5 °F 30.17 in NNW 2.0 mph 10.0 mph 40 % 0.00 in
10:34 57.0 °F 33.6 °F 30.17 in NNW 7.0 mph 10.0 mph 41 % 0.00 in
10:39 57.7 °F 33.6 °F 30.17 in North 9.0 mph 11.0 mph 40 % 0.00 in
10:44 57.9 °F 33.8 °F 30.17 in North 4.0 mph 11.0 mph 40 % 0.00 in
10:49 58.1 °F 33.3 °F 30.17 in NNW 8.0 mph 11.0 mph 39 % 0.00 in
10:54 58.8 °F 35.2 °F 30.17 in WNW 3.0 mph 10.0 mph 41 % 0.00 in
10:59 59.2 °F 33.6 °F 30.17 in North 6.0 mph 10.0 mph 38 % 0.00 in
11:04 59.2 °F 32.9 °F 30.17 in NW 1.0 mph 10.0 mph 37 % 0.00 in
11:09 59.4 °F 34.3 °F 30.16 in NW 2.0 mph 10.0 mph 39 % 0.00 in
11:14 59.5 °F 33.3 °F 30.16 in North 7.0 mph 10.0 mph 37 % 0.00 in
11:19 59.7 °F 33.4 °F 30.16 in NW 1.0 mph 10.0 mph 37 % 0.00 in
11:24 60.3 °F 33.8 °F 30.16 in NW 5.0 mph 10.0 mph 37 % 0.00 in
11:29 60.4 °F 34.0 °F 30.16 in West 2.0 mph 10.0 mph 37 % 0.00 in
11:30 60.6 °F 34.9 °F 30.16 in NNW 5.0 mph 10.0 mph 38 % 0.00 in
11:35 61.0 °F 33.1 °F 30.16 in NW 2.0 mph 11.0 mph 35 % 0.00 in
11:40 60.6 °F 34.2 °F 30.16 in NW 8.0 mph 11.0 mph 37 % 0.00 in
11:45 61.2 °F 34.0 °F 30.15 in North 5.0 mph 11.0 mph 36 % 0.00 in
11:50 61.5 °F 31.5 °F 30.15 in NW 3.0 mph 9.0 mph 32 % 0.00 in
11:55 61.5 °F 31.5 °F 30.15 in NNW 2.0 mph 9.0 mph 32 % 0.00 in
12:00 62.2 °F 33.4 °F 30.15 in NNW 5.0 mph 9.0 mph 34 % 0.00 in
12:05 62.2 °F 33.4 °F 30.15 in NW 1.0 mph 9.0 mph 34 % 0.00 in
12:10 62.4 °F 33.6 °F 30.14 in NW 1.0 mph 9.0 mph 34 % 0.00 in
12:15 63.0 °F 33.4 °F 30.14 in NNW 6.0 mph 11.0 mph 33 % 0.00 in
12:20 63.0 °F 34.2 °F 30.14 in NE 2.0 mph 11.0 mph 34 % 0.00 in
12:25 63.3 °F 32.9 °F 30.14 in NW 3.0 mph 11.0 mph 32 % 0.00 in
12:30 63.5 °F 32.4 °F 30.14 in NNW 10.0 mph 11.0 mph 31 % 0.00 in
12:35 63.9 °F 33.4 °F 30.14 in NNW 5.0 mph 13.0 mph 32 % 0.00 in
12:40 64.0 °F 32.7 °F 30.13 in WNW 1.0 mph 13.0 mph 31 % 0.00 in
12:45 64.4 °F 33.1 °F 30.13 in Calm   13.0 mph 31 % 0.00 in
12:50 64.6 °F 33.3 °F 30.13 in NNE 6.0 mph 11.0 mph 31 % 0.00 in
12:51 64.6 °F 33.3 °F 30.13 in NNW 1.0 mph 11.0 mph 31 % 0.00 in
12:56 64.8 °F 33.4 °F 30.13 in NNW 4.0 mph 11.0 mph 31 % 0.00 in
13:01 64.9 °F 32.7 °F 30.12 in NNE 6.0 mph 10.0 mph 30 % 0.00 in
13:06 64.8 °F 32.5 °F 30.12 in North 7.0 mph 11.0 mph 30 % 0.00 in
13:11 64.9 °F 32.0 °F 30.12 in North 4.0 mph 11.0 mph 29 % 0.00 in
13:16 65.1 °F 32.9 °F 30.12 in NNW 5.0 mph 11.0 mph 30 % 0.00 in
13:21 65.1 °F 32.9 °F 30.12 in NW 3.0 mph 10.0 mph 30 % 0.00 in
13:26 65.1 °F 33.8 °F 30.11 in NNW 3.0 mph 10.0 mph 31 % 0.00 in
13:31 65.5 °F 33.3 °F 30.11 in NW 3.0 mph 10.0 mph 30 % 0.00 in
13:36 65.8 °F 34.3 °F 30.11 in WNW 3.0 mph 9.0 mph 31 % 0.00 in
13:41 65.7 °F 33.4 °F 30.10 in West 4.0 mph 9.0 mph 30 % 0.00 in
13:46 66.0 °F 33.6 °F 30.10 in NW 7.0 mph 8.0 mph 30 % 0.00 in
13:52 66.4 °F 34.0 °F 30.10 in NW 7.0 mph 8.0 mph 30 % 0.00 in
13:57 66.2 °F 33.1 °F 30.09 in NW 4.0 mph 10.0 mph 29 % 0.00 in
14:02 66.6 °F 35.1 °F 30.09 in North 1.0 mph 10.0 mph 31 % 0.00 in
14:07 66.9 °F 32.7 °F 30.09 in NNW 6.0 mph 10.0 mph 28 % 0.00 in
14:12 66.6 °F 32.4 °F 30.09 in NW 4.0 mph 9.0 mph 28 % 0.00 in
14:17 66.4 °F 32.4 °F 30.08 in NNW 8.0 mph 9.0 mph 28 % 0.00 in
14:22 66.6 °F 32.4 °F 30.08 in NNW 2.0 mph 11.0 mph 28 % 0.00 in
14:27 66.6 °F 32.4 °F 30.08 in NNW 6.0 mph 11.0 mph 28 % 0.00 in
14:32 66.7 °F 33.4 °F 30.08 in North 7.0 mph 11.0 mph 29 % 0.00 in
14:37 66.9 °F 32.7 °F 30.08 in WNW 3.0 mph 11.0 mph 28 % 0.00 in
14:42 66.9 °F 32.7 °F 30.08 in NNW 2.0 mph 11.0 mph 28 % 0.00 in
14:47 67.1 °F 33.8 °F 30.08 in NW 2.0 mph 11.0 mph 29 % 0.00 in
14:52 67.3 °F 34.0 °F 30.07 in NW 4.0 mph 10.0 mph 29 % 0.00 in
14:57 67.6 °F 34.2 °F 30.07 in NE 4.0 mph 10.0 mph 29 % 0.00 in
15:02 68.2 °F 34.7 °F 30.07 in ENE 3.0 mph 9.0 mph 29 % 0.00 in
15:07 67.8 °F 33.4 °F 30.07 in NNW 5.0 mph 9.0 mph 28 % 0.00 in
15:12 67.6 °F 33.4 °F 30.07 in NNW 4.0 mph 8.0 mph 28 % 0.00 in
15:17 67.5 °F 32.4 °F 30.07 in NW 6.0 mph 8.0 mph 27 % 0.00 in
15:22 67.8 °F 35.2 °F 30.06 in NE 3.0 mph 10.0 mph 30 % 0.00 in
15:27 68.4 °F 34.0 °F 30.06 in ENE 3.0 mph 10.0 mph 28 % 0.00 in
15:32 68.4 °F 34.0 °F 30.06 in SSW 2.0 mph 10.0 mph 28 % 0.00 in
15:37 67.8 °F 33.4 °F 30.06 in SSE 4.0 mph 9.0 mph 28 % 0.00 in
15:42 68.0 °F 33.6 °F 30.06 in ENE 1.0 mph 9.0 mph 28 % 0.00 in
15:47 68.5 °F 35.1 °F 30.05 in Calm   8.0 mph 29 % 0.00 in
15:52 69.1 °F 33.6 °F 30.05 in NNW 2.0 mph 8.0 mph 27 % 0.00 in
15:57 68.7 °F 33.4 °F 30.05 in ENE 1.0 mph 6.0 mph 27 % 0.00 in
16:02 68.4 °F 33.1 °F 30.05 in North 4.0 mph 7.0 mph 27 % 0.00 in
16:07 68.5 °F 35.1 °F 30.05 in Calm   7.0 mph 29 % 0.00 in
16:12 68.5 °F 33.3 °F 30.05 in North 1.0 mph 9.0 mph 27 % 0.00 in
16:17 68.5 °F 33.3 °F 30.05 in East 4.0 mph 9.0 mph 27 % 0.00 in
16:22 68.4 °F 34.9 °F 30.04 in ENE 1.0 mph 9.0 mph 29 % 0.00 in
16:27 68.4 °F 34.9 °F 30.04 in Calm   8.0 mph 29 % 0.00 in
16:32 68.4 °F 34.0 °F 30.04 in ENE 5.0 mph 8.0 mph 28 % 0.00 in
16:37 68.4 °F 34.9 °F 30.04 in ENE 3.0 mph 8.0 mph 29 % 0.00 in
16:42 68.4 °F 34.0 °F 30.05 in North 2.0 mph 7.0 mph 28 % 0.00 in
16:47 68.2 °F 34.7 °F 30.05 in WNW 1.0 mph 8.0 mph 29 % 0.00 in
16:52 67.8 °F 34.3 °F 30.05 in East 2.0 mph 8.0 mph 29 % 0.00 in
16:57 67.6 °F 35.1 °F 30.05 in Calm   8.0 mph 30 % 0.00 in
17:02 67.5 °F 34.2 °F 30.05 in Calm   7.0 mph 29 % 0.00 in
17:07 67.5 °F 33.3 °F 30.04 in NNE 2.0 mph 7.0 mph 28 % 0.00 in
17:12 67.1 °F 33.8 °F 30.05 in ENE 2.0 mph 7.0 mph 29 % 0.00 in
17:17 66.9 °F 33.6 °F 30.05 in NNW 3.0 mph 6.0 mph 29 % 0.00 in
17:22 66.9 °F 33.6 °F 30.05 in ENE 2.0 mph 6.0 mph 29 % 0.00 in
17:27 66.6 °F 33.3 °F 30.05 in East 2.0 mph 5.0 mph 29 % 0.00 in
17:32 66.4 °F 34.0 °F 30.04 in Calm   5.0 mph 30 % 0.00 in
17:37 66.2 °F 33.1 °F 30.05 in Calm   5.0 mph 29 % 0.00 in
17:42 65.8 °F 33.6 °F 30.05 in Calm   4.0 mph 30 % 0.00 in
17:47 65.7 °F 32.5 °F 30.05 in Calm   4.0 mph 29 % 0.00 in
17:52 65.5 °F 32.4 °F 30.05 in Calm   4.0 mph 29 % 0.00 in
17:57 65.1 °F 32.0 °F 30.05 in Calm   4.0 mph 29 % 0.00 in
18:02 64.6 °F 32.4 °F 30.05 in ENE 1.0 mph 4.0 mph 30 % 0.00 in
18:07 64.0 °F 32.0 °F 30.05 in Calm   2.0 mph 30 % 0.00 in
18:12 63.7 °F 32.5 °F 30.05 in Calm   2.0 mph 31 % 0.00 in
18:17 63.1 °F 32.7 °F 30.05 in Calm   2.0 mph 32 % 0.00 in
18:22 62.8 °F 33.3 °F 30.05 in North 1.0 mph 2.0 mph 33 % 0.00 in
18:27 62.2 °F 33.4 °F 30.05 in Calm   2.0 mph 34 % 0.00 in
18:32 61.9 °F 34.0 °F 30.05 in Calm   1.0 mph 35 % 0.00 in
18:37 61.5 °F 33.6 °F 30.05 in Calm   1.0 mph 35 % 0.00 in
18:42 61.2 °F 34.7 °F 30.05 in NNE 1.0 mph 1.0 mph 37 % 0.00 in
18:47 60.6 °F 34.9 °F 30.05 in Calm   2.0 mph 38 % 0.00 in
18:52 60.3 °F 35.2 °F 30.05 in Calm   2.0 mph 39 % 0.00 in
18:57 59.9 °F 34.9 °F 30.05 in Calm   2.0 mph 39 % 0.00 in
19:02 59.5 °F 34.5 °F 30.05 in Calm   1.0 mph 39 % 0.00 in
19:07 59.5 °F 34.5 °F 30.05 in Calm   1.0 mph 39 % 0.00 in
19:12 59.4 °F 35.1 °F 30.05 in Calm   1.0 mph 40 % 0.00 in
19:17 59.2 °F 34.9 °F 30.05 in Calm   2.0 mph 40 % 0.00 in
19:22 59.2 °F 35.4 °F 30.06 in Calm   2.0 mph 41 % 0.00 in
19:27 59.2 °F 35.4 °F 30.06 in Calm   2.0 mph 41 % 0.00 in
19:32 58.8 °F 35.2 °F 30.06 in Calm   1.0 mph 41 % 0.00 in
19:37 58.6 °F 35.1 °F 30.06 in Calm   1.0 mph 41 % 0.00 in
19:42 58.5 °F 35.4 °F 30.06 in Calm   1.0 mph 42 % 0.00 in
19:47 58.3 °F 36.0 °F 30.06 in Calm   1.0 mph 43 % 0.00 in
19:52 57.9 °F 35.6 °F 30.06 in Calm   1.0 mph 43 % 0.00 in
19:57 57.9 °F 36.1 °F 30.06 in Calm   1.0 mph 44 % 0.00 in
20:02 57.7 °F 36.0 °F 30.07 in Calm   1.0 mph 44 % 0.00 in
20:07 57.4 °F 36.1 °F 30.07 in Calm   1.0 mph 45 % 0.00 in
20:12 57.0 °F 36.0 °F 30.07 in Calm   1.0 mph 45 % 0.00 in
20:17 57.0 °F 35.2 °F 30.07 in Calm   1.0 mph 44 % 0.00 in
20:22 57.0 °F 35.2 °F 30.08 in North 1.0 mph 3.0 mph 44 % 0.00 in
20:27 57.0 °F 36.0 °F 30.08 in Calm   3.0 mph 45 % 0.00 in
20:32 56.8 °F 35.8 °F 30.08 in North 1.0 mph 3.0 mph 45 % 0.00 in
20:37 56.7 °F 35.6 °F 30.08 in ENE 1.0 mph 2.0 mph 45 % 0.00 in
20:42 56.7 °F 35.6 °F 30.08 in Calm   2.0 mph 45 % 0.00 in
20:47 56.5 °F 36.0 °F 30.08 in Calm   2.0 mph 46 % 0.00 in
20:52 56.3 °F 35.8 °F 30.09 in NE 1.0 mph 2.0 mph 46 % 0.00 in
20:57 56.1 °F 36.1 °F 30.09 in Calm   2.0 mph 47 % 0.00 in
21:02 55.9 °F 36.0 °F 30.09 in Calm   1.0 mph 47 % 0.00 in
21:07 55.8 °F 36.3 °F 30.09 in Calm   1.0 mph 48 % 0.00 in
21:12 55.4 °F 36.0 °F 30.09 in Calm   1.0 mph 48 % 0.00 in
21:17 55.0 °F 36.1 °F 30.09 in Calm   1.0 mph 49 % 0.00 in
21:22 54.9 °F 36.1 °F 30.09 in Calm   1.0 mph 49 % 0.00 in
21:27 54.9 °F 36.5 °F 30.09 in Calm   1.0 mph 50 % 0.00 in
21:32 54.7 °F 36.3 °F 30.08 in Calm   1.0 mph 50 % 0.00 in
21:37 54.7 °F 36.3 °F 30.08 in Calm   1.0 mph 50 % 0.00 in
21:42 54.7 °F 36.3 °F 30.09 in NE 1.0 mph 2.0 mph 50 % 0.00 in
21:47 54.7 °F 36.0 °F 30.09 in ENE 1.0 mph 4.0 mph 49 % 0.00 in
21:52 54.9 °F 36.1 °F 30.09 in Calm   4.0 mph 49 % 0.00 in
21:57 54.7 °F 36.0 °F 30.09 in Calm   4.0 mph 49 % 0.00 in
22:02 54.3 °F 35.6 °F 30.09 in Calm   2.0 mph 49 % 0.00 in
22:07 54.3 °F 35.6 °F 30.09 in Calm   2.0 mph 49 % 0.00 in
22:12 54.1 °F 36.0 °F 30.09 in NE 1.0 mph 1.0 mph 50 % 0.00 in
22:17 54.1 °F 36.0 °F 30.08 in Calm   2.0 mph 50 % 0.00 in
22:22 54.0 °F 35.2 °F 30.08 in ENE 2.0 mph 2.0 mph 49 % 0.00 in
22:27 54.0 °F 35.8 °F 30.08 in Calm   2.0 mph 50 % 0.00 in
22:32 53.8 °F 35.6 °F 30.08 in ENE 1.0 mph 2.0 mph 50 % 0.00 in
22:37 53.8 °F 35.6 °F 30.08 in Calm   2.0 mph 50 % 0.00 in
22:42 53.6 °F 35.4 °F 30.08 in NNE 1.0 mph 2.0 mph 50 % 0.00 in
22:47 53.8 °F 36.1 °F 30.08 in Calm   2.0 mph 51 % 0.00 in
22:52 53.8 °F 36.1 °F 30.08 in ENE 1.0 mph 3.0 mph 51 % 0.00 in
22:57 53.6 °F 36.0 °F 30.07 in Calm   3.0 mph 51 % 0.00 in
23:02 53.4 °F 35.8 °F 30.07 in Calm   3.0 mph 51 % 0.00 in
23:07 53.4 °F 36.3 °F 30.07 in ESE 1.0 mph 3.0 mph 52 % 0.00 in
23:13 53.4 °F 35.8 °F 30.07 in Calm   3.0 mph 51 % 0.00 in
23:18 53.4 °F 36.3 °F 30.07 in ESE 1.0 mph 3.0 mph 52 % 0.00 in
23:23 53.2 °F 36.1 °F 30.07 in Calm   3.0 mph 52 % 0.00 in
23:28 53.1 °F 36.0 °F 30.07 in Calm   3.0 mph 52 % 0.00 in
23:33 52.7 °F 36.0 °F 30.07 in Calm   2.0 mph 53 % 0.00 in
23:38 52.3 °F 35.8 °F 30.07 in ESE 1.0 mph 2.0 mph 53 % 0.00 in
23:43 52.2 °F 35.6 °F 30.07 in Calm   2.0 mph 53 % 0.00 in
23:48 52.0 °F 35.8 °F 30.06 in Calm   1.0 mph 54 % 0.00 in
23:53 51.4 °F 35.4 °F 30.06 in Calm   1.0 mph 54 % 0.00 in
23:58 51.1 °F 36.0 °F 30.06 in Calm   1.0 mph 56 % 0.00 in
Spring, Texas: Villages of Bridgestone
Compliments of Weather Underground - 2.75 mb

Script developed by  Jim McMurry - jmcmurry@mwt.net Adapted for the template by  Wim van der Kuil - Leuven-Template.eu

You find our weather info also at:

UK Metoffice

WeatherCloud

Weather Underground

Mid-South Weather Network

AWEKAS

Citizen Weather Observer Program (CWOP)

HAMweather, WeatherForYou, PWS Weather

Equipment we use:

Weather-station
Davis Vantage Vue

Weather-program
Meteohub

Weather-server
Debian 7.9 x86 (Guest)

Provider
DreamHost

Davis Vantage Vue

Meteohub

Debian 7.9 x86 (Guest)

DreamHost